Main page
METAR-TAF:

METAR-TAF

Airports :

Sofia, Bulgaria

Sofia Airport

latitude: 42-39N, longitude: 023-23E, elevation: 586 m

Current weather observation

The report was made 29 minutes ago, at 09:30 UTC
Wind 6 kt from the West, varying between West/Southwest and Northwest
Temperature 19°C
Humidity 52%
Pressure 1017 hPa
Visibility: 8000 m

METAR: LBSF 220930Z 28006KT 240V320 8000 NSC 19/09 Q1017 NOSIG

Time: 12:59 (09:59 UTC)

Forecast

The report was made 4 hours and 59 minutes ago, at 05:00 UTC
Forecast valid from 22 at 06 UTC to 23 at 06 UTC
Wind 4 kt from variable directions
Visibility 10 km or more
no clouds below 1500 m and no cumulonimbus
Becoming
from 22 at 11 UTC to 22 at 13 UTC
Wind 10 kt from the East/Southeast
Becoming
from 23 at 00 UTC to 23 at 02 UTC
Scattered clouds at a height of 3000 ft
Broken clouds at a height of 5000 ft

TAF: LBSF 220500Z 2206/2306 VRB04KT CAVOK BECMG 2211/2213 11010KT BECMG 2300/2302 SCT030 BKN050

Weather observations and forecasts of more than 4000 airports (METAR and TAF reports).

The available stations are represented by yellow and red dots on the map.

Hover mouse over dot to see the name of the station.

Then click to see weather observations and forecasts.

To change the map : click on the green buttons with a black cross to zoom in, on the green button with a dash to zoom out, or on the green arrows for adjacent maps.


METAR-TAF: